Time;durP1;ratioP1;P1;durP2;ratioP2;P2;SDS_P1;SDS_P2;PMS_P1;PMS_P2;Temp;Humidity;BMP_temperature;BMP_pressure;BME280_temperature;BME280_humidity;BME280_pressure;Samples;Min_cycle;Max_cycle;Signal;HPM_P1;HPM_P2
2023/07/09 00:00:14;;;;;;;6.53;4.22;;;;;;;;;;5076602;28;20225;-86
2023/07/09 00:02:41;;;;;;;4.57;3.90;;;;;;;;;;5077146;28;20220;-87
2023/07/09 00:05:11;;;;;;;6.00;4.00;;;;;;;;;;5080389;28;20218;-87
2023/07/09 00:07:38;;;;;;;7.43;3.90;;;;;;;;;;5078634;28;20206;-87
2023/07/09 00:10:05;;;;;;;11.10;4.30;;;;;;;;;;5078537;28;20212;-87
2023/07/09 00:12:32;;;;;;;8.77;4.22;;;;;;;;;;5078253;28;20202;-87
2023/07/09 00:15:01;;;;;;;5.03;4.05;;;;;;;;;;5078284;28;20310;-87
2023/07/09 00:17:30;;;;;;;4.45;3.80;;;;;;;;;;5078120;28;20210;-86
2023/07/09 00:19:57;;;;;;;6.00;4.43;;;;;;;;;;5077835;28;20226;-87
2023/07/09 00:22:26;;;;;;;7.15;4.53;;;;;;;;;;5078175;28;20191;-87
2023/07/09 00:24:56;;;;;;;5.22;4.18;;;;;;;;;;5077631;28;20238;-86
2023/07/09 00:27:24;;;;;;;6.95;3.85;;;;;;;;;;5078251;28;20206;-87
2023/07/09 00:29:52;;;;;;;5.13;3.90;;;;;;;;;;5066951;28;20767;-87
2023/07/09 00:32:21;;;;;;;6.10;4.28;;;;;;;;;;5055155;28;20249;-88
2023/07/09 00:34:49;;;;;;;6.22;4.30;;;;;;;;;;5054204;28;20245;-88
2023/07/09 00:37:17;;;;;;;6.30;4.30;;;;;;;;;;5054811;28;20294;-88
2023/07/09 00:39:44;;;;;;;5.53;3.92;;;;;;;;;;5054084;28;20321;-88
2023/07/09 00:42:14;;;;;;;6.50;3.95;;;;;;;;;;5054871;28;20209;-88
2023/07/09 00:44:45;;;;;;;7.88;4.00;;;;;;;;;;5053530;28;20323;-87
2023/07/09 00:47:33;;;;;;;9.75;4.47;;;;;;;;;;5054312;28;20195;-87
2023/07/09 00:50:17;;;;;;;5.15;4.35;;;;;;;;;;5048818;28;20226;-87
2023/07/09 00:52:48;;;;;;;6.25;4.00;;;;;;;;;;5053991;28;20218;-87
2023/07/09 00:55:16;;;;;;;5.97;4.22;;;;;;;;;;5054228;28;20233;-87
2023/07/09 00:57:55;;;;;;;8.38;4.50;;;;;;;;;;5052921;28;20210;-87
2023/07/09 01:00:23;;;;;;;5.82;4.30;;;;;;;;;;5059213;28;20570;-88
2023/07/09 01:02:50;;;;;;;7.13;4.00;;;;;;;;;;5054387;28;20217;-87
2023/07/09 01:05:19;;;;;;;4.43;3.83;;;;;;;;;;5051065;28;20228;-88
2023/07/09 01:07:48;;;;;;;5.15;3.90;;;;;;;;;;5063391;28;20263;-87
2023/07/09 01:10:15;;;;;;;5.90;4.22;;;;;;;;;;5073650;28;20216;-88
2023/07/09 01:12:43;;;;;;;6.88;4.28;;;;;;;;;;5056275;28;20213;-88
2023/07/09 01:15:11;;;;;;;5.90;4.18;;;;;;;;;;5053616;28;20238;-88
2023/07/09 01:17:38;;;;;;;6.60;3.50;;;;;;;;;;5053639;28;20206;-87
2023/07/09 01:20:08;;;;;;;12.00;4.03;;;;;;;;;;5054063;28;20646;-87
2023/07/09 01:22:37;;;;;;;5.55;3.80;;;;;;;;;;5053591;28;20217;-88
2023/07/09 01:25:06;;;;;;;7.95;3.83;;;;;;;;;;5072234;28;20306;-88
2023/07/09 01:27:34;;;;;;;4.38;3.80;;;;;;;;;;5072860;28;20209;-88
2023/07/09 01:30:03;;;;;;;6.05;3.92;;;;;;;;;;5073370;28;20228;-88
2023/07/09 01:32:30;;;;;;;4.75;3.97;;;;;;;;;;5073415;28;20209;-87
2023/07/09 01:35:04;;;;;;;11.70;4.10;;;;;;;;;;5072871;28;20582;-88
2023/07/09 01:37:32;;;;;;;5.35;4.15;;;;;;;;;;5073009;28;20228;-88
2023/07/09 01:40:00;;;;;;;7.30;4.40;;;;;;;;;;5072912;28;20228;-88
2023/07/09 01:42:28;;;;;;;6.15;3.83;;;;;;;;;;5073404;28;20209;-87
2023/07/09 01:44:56;;;;;;;4.65;3.80;;;;;;;;;;5072515;28;20243;-88
2023/07/09 01:47:24;;;;;;;6.47;4.43;;;;;;;;;;5073454;28;20212;-85
2023/07/09 01:49:56;;;;;;;6.32;4.13;;;;;;;;;;5072425;28;20257;-86
2023/07/09 01:52:24;;;;;;;8.15;3.88;;;;;;;;;;5073406;28;20193;-86
2023/07/09 01:54:51;;;;;;;7.82;4.07;;;;;;;;;;5072282;28;20306;-86
2023/07/09 01:57:22;;;;;;;5.57;3.92;;;;;;;;;;5073274;28;20217;-85
2023/07/09 01:59:50;;;;;;;5.30;3.53;;;;;;;;;;5072110;28;20797;-86
2023/07/09 02:02:19;;;;;;;5.05;3.65;;;;;;;;;;5073049;28;20212;-86
2023/07/09 02:04:47;;;;;;;5.53;3.40;;;;;;;;;;5072171;28;20316;-85
2023/07/09 02:07:14;;;;;;;4.68;3.70;;;;;;;;;;5072877;28;20206;-86
2023/07/09 02:09:41;;;;;;;7.13;4.00;;;;;;;;;;5071875;28;20237;-86
2023/07/09 02:12:08;;;;;;;8.45;4.00;;;;;;;;;;5072766;28;20213;-86
2023/07/09 02:14:37;;;;;;;5.30;3.88;;;;;;;;;;5072071;28;20237;-86
2023/07/09 02:17:04;;;;;;;6.57;3.65;;;;;;;;;;5073056;28;20205;-85
2023/07/09 02:19:31;;;;;;;6.85;4.30;;;;;;;;;;5071907;28;20229;-86
2023/07/09 02:21:58;;;;;;;5.82;3.97;;;;;;;;;;5072728;28;20229;-85
2023/07/09 02:24:26;;;;;;;7.50;4.32;;;;;;;;;;5072050;28;20237;-85
2023/07/09 02:26:53;;;;;;;10.38;4.28;;;;;;;;;;5072055;28;20231;-85
2023/07/09 02:29:20;;;;;;;7.97;4.05;;;;;;;;;;5071808;28;20244;-86
2023/07/09 02:31:50;;;;;;;10.77;5.22;;;;;;;;;;5072438;28;20205;-86
2023/07/09 02:34:17;;;;;;;8.48;4.28;;;;;;;;;;5071820;28;20245;-86
2023/07/09 02:36:45;;;;;;;6.82;4.43;;;;;;;;;;5072196;28;20201;-86
2023/07/09 02:39:12;;;;;;;6.50;4.00;;;;;;;;;;5071698;28;20287;-85
2023/07/09 02:41:39;;;;;;;7.95;4.45;;;;;;;;;;5072269;28;20225;-86
2023/07/09 02:44:06;;;;;;;7.55;4.28;;;;;;;;;;5071501;28;20237;-86
2023/07/09 02:46:33;;;;;;;8.80;4.50;;;;;;;;;;5072540;28;20236;-85
2023/07/09 02:49:02;;;;;;;6.28;3.95;;;;;;;;;;5071606;28;20252;-85
2023/07/09 02:51:29;;;;;;;9.82;3.88;;;;;;;;;;5071852;28;20201;-85
2023/07/09 02:53:57;;;;;;;7.82;4.15;;;;;;;;;;5071416;28;20715;-86
2023/07/09 02:56:24;;;;;;;5.85;4.20;;;;;;;;;;5072479;28;20205;-86
2023/07/09 02:58:52;;;;;;;5.25;3.90;;;;;;;;;;5071282;28;20237;-85
2023/07/09 03:01:21;;;;;;;5.50;4.03;;;;;;;;;;5071763;28;20228;-86
2023/07/09 03:03:48;;;;;;;9.00;4.70;;;;;;;;;;5071328;28;20263;-86
2023/07/09 03:06:17;;;;;;;10.43;4.38;;;;;;;;;;5071874;28;20217;-85
2023/07/09 03:08:44;;;;;;;5.70;4.10;;;;;;;;;;5070937;28;20318;-86
2023/07/09 03:11:11;;;;;;;8.95;4.43;;;;;;;;;;5071582;28;20208;-86
2023/07/09 03:13:38;;;;;;;6.55;4.03;;;;;;;;;;5071540;28;20240;-86
2023/07/09 03:16:06;;;;;;;5.95;4.07;;;;;;;;;;5071693;28;20216;-85
2023/07/09 03:18:33;;;;;;;6.95;4.40;;;;;;;;;;5071251;28;20721;-86
2023/07/09 03:21:00;;;;;;;7.05;4.80;;;;;;;;;;5071619;28;20962;-85
2023/07/09 03:23:29;;;;;;;7.80;4.15;;;;;;;;;;5077483;28;20718;-86
2023/07/09 03:25:57;;;;;;;8.95;4.38;;;;;;;;;;5073073;28;20205;-86
2023/07/09 03:28:24;;;;;;;6.97;4.70;;;;;;;;;;5071423;28;20698;-85
2023/07/09 03:30:54;;;;;;;10.43;4.45;;;;;;;;;;5071812;28;20209;-85
2023/07/09 03:33:21;;;;;;;5.95;4.13;;;;;;;;;;5071216;28;20229;-86
2023/07/09 03:35:48;;;;;;;8.25;3.90;;;;;;;;;;5073052;28;20205;-86
2023/07/09 03:38:15;;;;;;;7.45;4.10;;;;;;;;;;5074848;28;20237;-85
2023/07/09 03:40:44;;;;;;;11.70;4.45;;;;;;;;;;5076500;28;20228;-86
2023/07/09 03:43:11;;;;;;;8.35;4.40;;;;;;;;;;5077145;28;20243;-85
2023/07/09 03:45:39;;;;;;;7.03;4.05;;;;;;;;;;5080275;22;20316;-83
2023/07/09 03:48:07;;;;;;;8.00;4.32;;;;;;;;;;5054965;28;20237;-83
2023/07/09 03:50:34;;;;;;;6.82;4.10;;;;;;;;;;5055655;28;20210;-83
2023/07/09 03:53:01;;;;;;;8.98;4.40;;;;;;;;;;5055370;28;20253;-83
2023/07/09 03:55:28;;;;;;;9.65;4.00;;;;;;;;;;5055423;28;20586;-83
2023/07/09 03:57:57;;;;;;;10.60;4.85;;;;;;;;;;5055302;28;20320;-83
2023/07/09 04:00:24;;;;;;;6.47;4.20;;;;;;;;;;5057918;28;20202;-83
2023/07/09 04:02:51;;;;;;;10.68;4.18;;;;;;;;;;5054969;28;20257;-83
2023/07/09 04:05:19;;;;;;;9.32;4.30;;;;;;;;;;5055603;28;20214;-83
2023/07/09 04:07:46;;;;;;;6.28;3.85;;;;;;;;;;5054878;28;20202;-83
2023/07/09 04:10:13;;;;;;;6.03;3.83;;;;;;;;;;5054970;28;20202;-83
2023/07/09 04:12:40;;;;;;;7.35;4.13;;;;;;;;;;5054260;28;20209;-83
2023/07/09 04:15:09;;;;;;;9.20;4.40;;;;;;;;;;5055045;28;20225;-83
2023/07/09 04:17:36;;;;;;;10.93;4.28;;;;;;;;;;5054276;28;20205;-82
2023/07/09 04:20:07;;;;;;;4.85;3.97;;;;;;;;;;5055190;28;20214;-82
2023/07/09 04:22:34;;;;;;;7.68;4.00;;;;;;;;;;5054728;28;20222;-83
2023/07/09 04:25:03;;;;;;;4.88;4.07;;;;;;;;;;5055145;28;20311;-82
2023/07/09 04:27:30;;;;;;;8.20;4.20;;;;;;;;;;5054157;28;20671;-83
2023/07/09 04:29:57;;;;;;;7.75;4.25;;;;;;;;;;5055074;28;20217;-83
2023/07/09 04:32:25;;;;;;;9.30;4.68;;;;;;;;;;5055188;28;20202;-84
2023/07/09 04:34:53;;;;;;;4.82;3.92;;;;;;;;;;5054874;28;20234;-83
2023/07/09 04:37:20;;;;;;;5.47;4.18;;;;;;;;;;5056234;28;20237;-83
2023/07/09 04:39:48;;;;;;;6.55;4.07;;;;;;;;;;5055833;28;20240;-83
2023/07/09 04:42:16;;;;;;;6.53;4.13;;;;;;;;;;5055825;28;20662;-83
2023/07/09 04:44:43;;;;;;;7.10;4.60;;;;;;;;;;5055461;28;20249;-83
2023/07/09 04:47:11;;;;;;;10.20;4.53;;;;;;;;;;5055773;28;20217;-83
2023/07/09 04:49:40;;;;;;;6.45;4.25;;;;;;;;;;5073213;28;20241;-83
2023/07/09 04:52:10;;;;;;;5.90;4.30;;;;;;;;;;5078011;28;20186;-84
2023/07/09 04:54:37;;;;;;;6.35;4.53;;;;;;;;;;5078118;28;20244;-84
2023/07/09 04:57:05;;;;;;;6.13;4.07;;;;;;;;;;5078045;28;20270;-83
2023/07/09 04:59:32;;;;;;;6.85;3.88;;;;;;;;;;5080662;28;20213;-83
2023/07/09 05:02:00;;;;;;;10.15;4.95;;;;;;;;;;5078418;28;20217;-83
2023/07/09 05:04:27;;;;;;;9.25;4.55;;;;;;;;;;5076487;28;20234;-83
2023/07/09 05:06:55;;;;;;;6.25;4.10;;;;;;;;;;5054681;28;20206;-82
2023/07/09 05:09:23;;;;;;;9.45;6.25;;;;;;;;;;5053961;28;20245;-83
2023/07/09 05:11:50;;;;;;;15.80;4.60;;;;;;;;;;5054123;28;20293;-83
2023/07/09 05:14:17;;;;;;;6.78;4.22;;;;;;;;;;5053900;28;20230;-82
2023/07/09 05:16:45;;;;;;;6.90;3.92;;;;;;;;;;5053852;28;20614;-82
2023/07/09 05:19:12;;;;;;;13.52;4.82;;;;;;;;;;5053294;28;20230;-83
2023/07/09 05:21:39;;;;;;;8.25;4.40;;;;;;;;;;5054075;28;20218;-83
2023/07/09 05:24:08;;;;;;;9.57;4.50;;;;;;;;;;5053515;28;21012;-83
2023/07/09 05:26:35;;;;;;;8.20;4.43;;;;;;;;;;5054092;28;20244;-82
2023/07/09 05:29:04;;;;;;;11.35;4.60;;;;;;;;;;5053321;28;20237;-83
2023/07/09 05:31:31;;;;;;;11.18;4.78;;;;;;;;;;5053632;28;20205;-82
2023/07/09 05:33:58;;;;;;;13.20;4.90;;;;;;;;;;5053058;28;20643;-83
2023/07/09 05:36:25;;;;;;;10.63;5.22;;;;;;;;;;5053820;28;20229;-82
2023/07/09 05:38:52;;;;;;;10.23;4.50;;;;;;;;;;5044694;28;20233;-83
2023/07/09 05:41:20;;;;;;;10.85;4.65;;;;;;;;;;5053988;28;20218;-83
2023/07/09 05:43:47;;;;;;;8.98;4.53;;;;;;;;;;5052846;28;20236;-83
2023/07/09 05:46:15;;;;;;;9.88;4.57;;;;;;;;;;5053590;28;20223;-83
2023/07/09 05:48:42;;;;;;;8.20;4.10;;;;;;;;;;5052608;28;20237;-83
2023/07/09 05:51:09;;;;;;;6.85;4.05;;;;;;;;;;5053476;28;20675;-82
2023/07/09 05:53:36;;;;;;;12.82;4.13;;;;;;;;;;5052825;28;20230;-82
2023/07/09 05:56:03;;;;;;;8.93;4.32;;;;;;;;;;5053310;28;20213;-82
2023/07/09 05:58:32;;;;;;;7.72;3.72;;;;;;;;;;5052751;28;20233;-83
2023/07/09 06:00:59;;;;;;;7.15;3.63;;;;;;;;;;5052196;28;20209;-82
2023/07/09 06:03:27;;;;;;;8.90;3.72;;;;;;;;;;5052883;28;20230;-83
2023/07/09 06:05:54;;;;;;;13.45;4.28;;;;;;;;;;5045350;28;20655;-83
2023/07/09 06:08:21;;;;;;;6.85;4.05;;;;;;;;;;5052796;28;20230;-83
2023/07/09 06:10:52;;;;;;;9.90;3.70;;;;;;;;;;5053001;28;20705;-83
2023/07/09 06:13:20;;;;;;;5.15;3.45;;;;;;;;;;5052818;28;20559;-83
2023/07/09 06:15:49;;;;;;;6.20;3.50;;;;;;;;;;5052674;28;20225;-83
2023/07/09 06:18:16;;;;;;;9.10;3.85;;;;;;;;;;5052188;28;20230;-83
2023/07/09 06:20:47;;;;;;;7.78;3.45;;;;;;;;;;5052941;28;20237;-83
2023/07/09 06:23:14;;;;;;;9.18;3.30;;;;;;;;;;5052437;28;20508;-84
2023/07/09 06:25:41;;;;;;;7.07;3.92;;;;;;;;;;5052442;28;20269;-84
2023/07/09 06:28:08;;;;;;;4.00;3.17;;;;;;;;;;5052102;28;20702;-84
2023/07/09 06:30:35;;;;;;;5.95;3.33;;;;;;;;;;5052124;28;20202;-84
2023/07/09 06:33:03;;;;;;;4.90;3.22;;;;;;;;;;5052170;28;20234;-84
2023/07/09 06:35:31;;;;;;;6.53;3.30;;;;;;;;;;5053307;28;20229;-84
2023/07/09 06:37:58;;;;;;;9.80;3.60;;;;;;;;;;5052567;28;20225;-84
2023/07/09 06:40:25;;;;;;;7.13;3.35;;;;;;;;;;5052595;28;20198;-84
2023/07/09 06:42:52;;;;;;;5.43;3.30;;;;;;;;;;5052331;28;20240;-85
2023/07/09 06:45:19;;;;;;;5.13;3.70;;;;;;;;;;5052530;28;20722;-84
2023/07/09 06:47:46;;;;;;;5.45;4.35;;;;;;;;;;5052491;28;20582;-84
2023/07/09 06:50:14;;;;;;;3.38;2.92;;;;;;;;;;5052255;28;20212;-84
2023/07/09 06:52:41;;;;;;;5.22;3.63;;;;;;;;;;5051791;28;20206;-84
2023/07/09 06:55:09;;;;;;;6.85;3.25;;;;;;;;;;5052355;28;20691;-83
2023/07/09 06:57:36;;;;;;;9.55;3.53;;;;;;;;;;5051911;28;20206;-83
2023/07/09 07:00:04;;;;;;;12.63;3.65;;;;;;;;;;5052757;28;20706;-84
2023/07/09 07:02:31;;;;;;;5.40;4.18;;;;;;;;;;5051891;28;20221;-84
2023/07/09 07:04:58;;;;;;;9.88;3.80;;;;;;;;;;5052548;28;20218;-83
2023/07/09 07:07:26;;;;;;;11.25;4.47;;;;;;;;;;5052350;28;20603;-84
2023/07/09 07:09:53;;;;;;;4.95;3.58;;;;;;;;;;5051361;28;20226;-84
2023/07/09 07:12:27;;;;;;;5.50;3.50;;;;;;;;;;5052164;28;20205;-85
2023/07/09 07:14:54;;;;;;;6.82;3.47;;;;;;;;;;5044422;28;20752;-85
2023/07/09 07:17:22;;;;;;;4.13;2.88;;;;;;;;;;5043707;28;20202;-84
2023/07/09 07:19:49;;;;;;;5.22;3.40;;;;;;;;;;5040682;28;20256;-84
2023/07/09 07:22:16;;;;;;;4.85;3.38;;;;;;;;;;5038232;28;20225;-85
2023/07/09 07:24:44;;;;;;;4.13;3.05;;;;;;;;;;5041522;28;20240;-84
2023/07/09 07:27:11;;;;;;;6.40;3.40;;;;;;;;;;5040109;28;20289;-85
2023/07/09 07:29:38;;;;;;;3.83;3.20;;;;;;;;;;5040176;28;20242;-84
2023/07/09 07:32:06;;;;;;;6.07;3.30;;;;;;;;;;5051954;28;20229;-84
2023/07/09 07:34:33;;;;;;;5.40;3.33;;;;;;;;;;5051154;28;20238;-84
2023/07/09 07:37:00;;;;;;;5.57;3.30;;;;;;;;;;5052215;28;20212;-84
2023/07/09 07:39:27;;;;;;;5.72;3.42;;;;;;;;;;5053261;28;20718;-84
2023/07/09 07:41:55;;;;;;;7.28;3.63;;;;;;;;;;5054411;28;20233;-85
2023/07/09 07:44:22;;;;;;;8.50;4.50;;;;;;;;;;5051423;28;20233;-84
2023/07/09 07:46:50;;;;;;;6.75;3.60;;;;;;;;;;5041874;28;20209;-85
2023/07/09 07:49:17;;;;;;;14.32;3.70;;;;;;;;;;5039498;28;20245;-84
2023/07/09 07:51:44;;;;;;;4.43;3.25;;;;;;;;;;5041556;28;20207;-85
2023/07/09 07:54:11;;;;;;;4.68;3.03;;;;;;;;;;5042580;28;20241;-85
2023/07/09 07:56:38;;;;;;;5.15;3.53;;;;;;;;;;5051454;28;20198;-83
2023/07/09 07:59:06;;;;;;;4.07;3.03;;;;;;;;;;5050818;28;20225;-83
2023/07/09 08:01:35;;;;;;;5.60;3.05;;;;;;;;;;5051633;28;20214;-83
2023/07/09 08:04:02;;;;;;;6.20;3.47;;;;;;;;;;5034856;28;20708;-83
2023/07/09 08:06:31;;;;;;;6.72;3.45;;;;;;;;;;5052119;28;20213;-85
2023/07/09 08:08:58;;;;;;;8.93;3.30;;;;;;;;;;5051501;28;20248;-84
2023/07/09 08:11:27;;;;;;;6.72;3.20;;;;;;;;;;5051725;28;20206;-84
2023/07/09 08:13:55;;;;;;;8.15;3.42;;;;;;;;;;5054367;28;20240;-83
2023/07/09 08:16:23;;;;;;;4.55;3.00;;;;;;;;;;5055631;28;20206;-83
2023/07/09 08:18:51;;;;;;;5.53;3.33;;;;;;;;;;5053331;28;20233;-83
2023/07/09 08:21:18;;;;;;;4.57;3.22;;;;;;;;;;5053220;28;20627;-83
2023/07/09 08:23:46;;;;;;;5.65;3.15;;;;;;;;;;5052379;28;20234;-83
2023/07/09 08:26:13;;;;;;;5.82;3.30;;;;;;;;;;5056955;28;20233;-82
2023/07/09 08:28:40;;;;;;;4.57;3.00;;;;;;;;;;5054647;28;20234;-83
2023/07/09 08:31:07;;;;;;;5.82;3.42;;;;;;;;;;5055868;28;20217;-83
2023/07/09 08:33:36;;;;;;;4.55;3.00;;;;;;;;;;5054777;28;20257;-83
2023/07/09 08:36:03;;;;;;;5.65;3.50;;;;;;;;;;5043692;28;20683;-83
2023/07/09 08:38:30;;;;;;;6.10;3.33;;;;;;;;;;5042753;28;20238;-83
2023/07/09 08:40:59;;;;;;;3.78;2.88;;;;;;;;;;5045647;28;20210;-83
2023/07/09 08:43:39;;;;;;;4.72;2.85;;;;;;;;;;5045160;28;20691;-83
2023/07/09 08:46:16;;;;;;;3.85;3.10;;;;;;;;;;5046537;28;20202;-83
2023/07/09 08:48:45;;;;;;;4.25;2.95;;;;;;;;;;5053502;28;20229;-83
2023/07/09 08:51:15;;;;;;;6.40;3.00;;;;;;;;;;5054074;28;20222;-83
2023/07/09 08:53:44;;;;;;;6.22;3.03;;;;;;;;;;5053783;28;20245;-83
2023/07/09 08:56:12;;;;;;;5.30;2.90;;;;;;;;;;5054522;28;20206;-83
2023/07/09 08:58:40;;;;;;;3.58;2.78;;;;;;;;;;5053359;28;20234;-83
2023/07/09 09:01:11;;;;;;;4.72;2.88;;;;;;;;;;5053828;28;20209;-83
2023/07/09 09:03:40;;;;;;;7.45;3.15;;;;;;;;;;5044755;28;20242;-83
2023/07/09 09:06:13;;;;;;;5.82;3.03;;;;;;;;;;5042248;28;20206;-83
2023/07/09 09:08:42;;;;;;;26.40;4.18;;;;;;;;;;5041747;28;20322;-83
2023/07/09 09:11:14;;;;;;;5.10;3.08;;;;;;;;;;5045240;28;20198;-83
2023/07/09 09:13:42;;;;;;;4.78;3.00;;;;;;;;;;5053790;28;20265;-83
2023/07/09 09:16:12;;;;;;;4.43;3.08;;;;;;;;;;5053313;28;20206;-83
2023/07/09 09:18:42;;;;;;;3.95;3.33;;;;;;;;;;5044269;28;20235;-83
2023/07/09 09:21:17;;;;;;;3.47;2.88;;;;;;;;;;5045404;28;20244;-83
2023/07/09 09:23:48;;;;;;;4.75;2.67;;;;;;;;;;5052564;28;20237;-83
2023/07/09 09:26:19;;;;;;;4.88;3.20;;;;;;;;;;5053365;28;20214;-83
2023/07/09 09:28:46;;;;;;;7.75;3.40;;;;;;;;;;5052629;28;20229;-83
2023/07/09 09:31:14;;;;;;;4.03;3.10;;;;;;;;;;5053195;28;20233;-83
2023/07/09 09:33:44;;;;;;;3.70;2.65;;;;;;;;;;5052359;28;20229;-83
2023/07/09 09:36:17;;;;;;;6.85;2.88;;;;;;;;;;5043554;28;20201;-83
2023/07/09 09:38:44;;;;;;;5.43;3.17;;;;;;;;;;5052585;28;20228;-83
2023/07/09 09:41:15;;;;;;;4.00;3.15;;;;;;;;;;5053254;28;20201;-83
2023/07/09 09:43:43;;;;;;;5.30;2.80;;;;;;;;;;5043750;28;20750;-83
2023/07/09 09:46:11;;;;;;;9.00;3.40;;;;;;;;;;5053950;22;20322;-86
2023/07/09 09:48:38;;;;;;;4.55;3.08;;;;;;;;;;5020729;28;20234;-85
2023/07/09 09:51:06;;;;;;;6.05;2.60;;;;;;;;;;5021361;28;20676;-85
2023/07/09 09:53:38;;;;;;;5.85;2.90;;;;;;;;;;5020996;28;20231;-85
2023/07/09 09:56:06;;;;;;;7.68;2.80;;;;;;;;;;5024358;28;20222;-85
2023/07/09 09:58:35;;;;;;;5.63;2.78;;;;;;;;;;5024104;28;20246;-86
2023/07/09 10:01:02;;;;;;;3.88;2.90;;;;;;;;;;5016525;28;20206;-85
2023/07/09 10:03:35;;;;;;;3.05;2.50;;;;;;;;;;5024138;28;20598;-86
2023/07/09 10:06:07;;;;;;;4.35;2.85;;;;;;;;;;5021505;28;20230;-86
2023/07/09 10:08:40;;;;;;;4.68;3.00;;;;;;;;;;5019708;28;20234;-85
2023/07/09 10:11:13;;;;;;;3.35;2.47;;;;;;;;;;5012959;28;20668;-86
2023/07/09 10:13:45;;;;;;;3.85;2.95;;;;;;;;;;5020598;28;20231;-85
2023/07/09 10:16:16;;;;;;;3.90;3.10;;;;;;;;;;5013309;28;20254;-86
2023/07/09 10:18:53;;;;;;;5.10;2.90;;;;;;;;;;5020403;28;20226;-86
2023/07/09 10:21:22;;;;;;;3.70;3.20;;;;;;;;;;5024156;28;20197;-86
2023/07/09 10:23:52;;;;;;;5.47;3.20;;;;;;;;;;5022486;28;20707;-86
2023/07/09 10:26:24;;;;;;;5.63;2.80;;;;;;;;;;5020594;28;20227;-86
2023/07/09 10:29:01;;;;;;;4.40;2.90;;;;;;;;;;5021156;28;20231;-86
2023/07/09 10:31:32;;;;;;;5.43;3.22;;;;;;;;;;5017920;28;20214;-85
2023/07/09 10:34:02;;;;;;;4.55;3.10;;;;;;;;;;5028088;28;20241;-86
2023/07/09 10:36:33;;;;;;;6.63;3.05;;;;;;;;;;5020593;28;20206;-86
2023/07/09 10:39:02;;;;;;;4.07;2.65;;;;;;;;;;5021989;28;20715;-85
2023/07/09 10:41:30;;;;;;;5.40;3.22;;;;;;;;;;5023925;28;20202;-85
2023/07/09 10:44:01;;;;;;;7.05;3.20;;;;;;;;;;5021123;28;20616;-85
2023/07/09 10:46:29;;;;;;;3.35;2.90;;;;;;;;;;5018054;28;20205;-86
2023/07/09 10:48:57;;;;;;;3.65;3.00;;;;;;;;;;5021370;28;20231;-85
2023/07/09 10:51:28;;;;;;;5.18;2.85;;;;;;;;;;5026143;28;20296;-86
2023/07/09 10:53:59;;;;;;;3.55;2.40;;;;;;;;;;5021529;28;20711;-86
2023/07/09 10:56:27;;;;;;;3.85;2.65;;;;;;;;;;5020278;28;20233;-85
2023/07/09 10:58:58;;;;;;;3.92;2.80;;;;;;;;;;5020968;28;20234;-85
2023/07/09 11:01:30;;;;;;;5.25;3.00;;;;;;;;;;5020442;28;20203;-84
2023/07/09 11:04:00;;;;;;;7.75;3.20;;;;;;;;;;5021301;28;20241;-85
2023/07/09 11:06:31;;;;;;;3.45;2.58;;;;;;;;;;5018012;28;20214;-86
2023/07/09 11:08:59;;;;;;;6.68;3.33;;;;;;;;;;5021174;28;20242;-86
2023/07/09 11:11:35;;;;;;;7.05;3.20;;;;;;;;;;5023683;28;20233;-87
2023/07/09 11:14:05;;;;;;;3.30;2.90;;;;;;;;;;5023088;28;20238;-86
2023/07/09 11:16:34;;;;;;;6.40;3.15;;;;;;;;;;5023537;28;20237;-85
2023/07/09 11:19:02;;;;;;;3.40;2.63;;;;;;;;;;5020865;28;20648;-86
2023/07/09 11:21:30;;;;;;;5.68;2.97;;;;;;;;;;5020469;28;20214;-86
2023/07/09 11:23:59;;;;;;;5.60;3.47;;;;;;;;;;5020702;28;20235;-86
2023/07/09 11:26:27;;;;;;;4.68;2.80;;;;;;;;;;5023641;28;20668;-86
2023/07/09 11:28:55;;;;;;;5.15;3.22;;;;;;;;;;5021883;28;20233;-86
2023/07/09 11:31:24;;;;;;;3.85;3.00;;;;;;;;;;5020025;28;20292;-86
2023/07/09 11:34:01;;;;;;;5.38;3.67;;;;;;;;;;5020053;28;20237;-86
2023/07/09 11:36:29;;;;;;;4.90;3.10;;;;;;;;;;5023303;28;20206;-87
2023/07/09 11:38:57;;;;;;;6.97;3.63;;;;;;;;;;5021248;28;20816;-87
2023/07/09 11:41:27;;;;;;;5.78;3.40;;;;;;;;;;5020024;28;20203;-87
2023/07/09 11:43:54;;;;;;;6.47;3.78;;;;;;;;;;5020175;28;20241;-86
2023/07/09 11:46:23;;;;;;;6.97;3.00;;;;;;;;;;5023283;28;20734;-86
2023/07/09 11:48:50;;;;;;;4.00;2.75;;;;;;;;;;5014288;28;20242;-87
2023/07/09 11:51:22;;;;;;;4.75;3.10;;;;;;;;;;5019984;28;20703;-86
2023/07/09 11:53:51;;;;;;;3.85;3.00;;;;;;;;;;5019369;28;20226;-87
2023/07/09 11:56:20;;;;;;;4.15;3.00;;;;;;;;;;5023092;28;20225;-86
2023/07/09 11:58:50;;;;;;;6.63;2.92;;;;;;;;;;5023922;28;20226;-87
2023/07/09 12:01:18;;;;;;;4.38;3.03;;;;;;;;;;5027097;28;20210;-87
2023/07/09 12:03:47;;;;;;;5.20;2.92;;;;;;;;;;5027191;28;20592;-87
2023/07/09 12:06:18;;;;;;;4.55;2.65;;;;;;;;;;5027990;28;20229;-86
2023/07/09 12:08:47;;;;;;;3.63;2.97;;;;;;;;;;5027036;28;20230;-87
2023/07/09 12:11:21;;;;;;;4.05;2.70;;;;;;;;;;5015355;28;20207;-86
2023/07/09 12:13:48;;;;;;;3.50;2.63;;;;;;;;;;5031251;28;20719;-86
2023/07/09 12:16:25;;;;;;;3.95;2.75;;;;;;;;;;5026660;28;20238;-87
2023/07/09 12:18:53;;;;;;;7.18;3.10;;;;;;;;;;5025786;28;20233;-87
2023/07/09 12:21:20;;;;;;;6.13;3.03;;;;;;;;;;5023504;28;20203;-86
2023/07/09 12:23:48;;;;;;;4.00;2.80;;;;;;;;;;5022730;28;20241;-86
2023/07/09 12:26:17;;;;;;;4.32;2.75;;;;;;;;;;5014791;28;20238;-85
2023/07/09 12:28:44;;;;;;;6.68;3.28;;;;;;;;;;5022409;28;20234;-87
2023/07/09 12:31:14;;;;;;;3.08;2.72;;;;;;;;;;5025900;28;20264;-86
2023/07/09 12:33:48;;;;;;;5.20;3.30;;;;;;;;;;5025907;28;20715;-87
2023/07/09 12:36:15;;;;;;;5.07;3.08;;;;;;;;;;5026601;28;20221;-88
2023/07/09 12:38:43;;;;;;;3.47;3.05;;;;;;;;;;5026082;28;20230;-87
2023/07/09 12:41:18;;;;;;;5.65;2.97;;;;;;;;;;5023391;28;20688;-86
2023/07/09 12:43:45;;;;;;;4.22;2.65;;;;;;;;;;5021603;28;20251;-86
2023/07/09 12:46:12;;;;;;;6.18;2.85;;;;;;;;;;5023425;28;20226;-87
2023/07/09 12:48:39;;;;;;;3.85;2.78;;;;;;;;;;5021152;28;20233;-86
2023/07/09 12:51:09;;;;;;;7.82;2.92;;;;;;;;;;5023763;28;20206;-85
2023/07/09 12:53:37;;;;;;;3.40;3.10;;;;;;;;;;5022508;28;20223;-87
2023/07/09 12:56:04;;;;;;;3.85;3.20;;;;;;;;;;5024546;28;20716;-87
2023/07/09 12:58:37;;;;;;;4.53;2.90;;;;;;;;;;5025899;28;20245;-85
2023/07/09 13:01:06;;;;;;;4.40;2.85;;;;;;;;;;5016111;28;20217;-87
2023/07/09 13:03:34;;;;;;;4.88;2.38;;;;;;;;;;5021898;28;20699;-87
2023/07/09 13:06:03;;;;;;;5.82;2.80;;;;;;;;;;5023672;28;20226;-87
2023/07/09 13:08:31;;;;;;;4.70;2.80;;;;;;;;;;5020134;28;20238;-86
2023/07/09 13:10:58;;;;;;;3.83;3.33;;;;;;;;;;5030447;28;20217;-86
2023/07/09 13:13:26;;;;;;;4.43;2.95;;;;;;;;;;5026896;28;20233;-86
2023/07/09 13:15:58;;;;;;;5.50;3.10;;;;;;;;;;5024878;28;20226;-86
2023/07/09 13:18:26;;;;;;;4.63;3.03;;;;;;;;;;5021268;28;20230;-85
2023/07/09 13:20:53;;;;;;;4.13;2.60;;;;;;;;;;5021779;28;20203;-85
2023/07/09 13:23:21;;;;;;;3.33;2.95;;;;;;;;;;5024914;28;20284;-84
2023/07/09 13:25:49;;;;;;;3.95;2.80;;;;;;;;;;5025300;28;20737;-85
2023/07/09 13:28:17;;;;;;;3.10;2.70;;;;;;;;;;5021415;28;20707;-85
2023/07/09 13:30:44;;;;;;;3.10;2.55;;;;;;;;;;5021688;28;20217;-86
2023/07/09 13:33:13;;;;;;;3.42;3.08;;;;;;;;;;5029305;28;20225;-86
2023/07/09 13:35:40;;;;;;;4.68;3.08;;;;;;;;;;5021695;28;20226;-86
2023/07/09 13:38:14;;;;;;;3.42;2.70;;;;;;;;;;5022993;28;20230;-86
2023/07/09 13:40:41;;;;;;;3.35;2.92;;;;;;;;;;5024813;28;20620;-85
2023/07/09 13:43:10;;;;;;;3.63;2.97;;;;;;;;;;5016115;28;20234;-86
2023/07/09 13:45:37;;;;;;;2.97;2.70;;;;;;;;;;5018563;28;20249;-85
2023/07/09 13:48:04;;;;;;;3.60;2.65;;;;;;;;;;5022151;28;20231;-85
2023/07/09 13:50:33;;;;;;;3.53;2.63;;;;;;;;;;5024483;28;20213;-85
2023/07/09 13:53:00;;;;;;;4.85;2.67;;;;;;;;;;5023348;28;20230;-85
2023/07/09 13:55:27;;;;;;;5.60;2.70;;;;;;;;;;5021027;28;20235;-85
2023/07/09 13:57:54;;;;;;;4.93;2.80;;;;;;;;;;5020600;28;20241;-85
2023/07/09 14:00:22;;;;;;;7.00;2.83;;;;;;;;;;5020281;28;20558;-84
2023/07/09 14:02:49;;;;;;;4.32;2.90;;;;;;;;;;5020014;28;20238;-84
2023/07/09 14:05:16;;;;;;;7.82;2.92;;;;;;;;;;5020954;28;20231;-84
2023/07/09 14:07:45;;;;;;;4.72;2.85;;;;;;;;;;5020605;28;20203;-83
2023/07/09 14:10:13;;;;;;;4.95;2.83;;;;;;;;;;5023725;28;20222;-85
2023/07/09 14:12:42;;;;;;;4.18;3.00;;;;;;;;;;5023897;28;20680;-84
2023/07/09 14:15:13;;;;;;;4.90;2.67;;;;;;;;;;5022489;28;20218;-85
2023/07/09 14:17:40;;;;;;;7.13;2.67;;;;;;;;;;5020866;28;20214;-82
2023/07/09 14:20:07;;;;;;;2.78;2.47;;;;;;;;;;5028681;28;20202;-85
2023/07/09 14:22:35;;;;;;;3.78;2.88;;;;;;;;;;5019844;28;20215;-82
2023/07/09 14:25:04;;;;;;;7.55;3.22;;;;;;;;;;5021494;28;20231;-85
2023/07/09 14:27:31;;;;;;;8.80;3.28;;;;;;;;;;5023547;28;20567;-84
2023/07/09 14:29:59;;;;;;;6.05;3.08;;;;;;;;;;5023443;28;20584;-85
2023/07/09 14:32:33;;;;;;;4.53;2.78;;;;;;;;;;5024952;28;20212;-85
2023/07/09 14:35:01;;;;;;;5.10;3.00;;;;;;;;;;5022891;28;20233;-85
2023/07/09 14:37:28;;;;;;;3.58;2.78;;;;;;;;;;5020845;28;20206;-85
2023/07/09 14:39:55;;;;;;;3.10;2.80;;;;;;;;;;5020065;28;20894;-86
2023/07/09 14:42:23;;;;;;;5.15;2.85;;;;;;;;;;5012491;28;20202;-85
2023/07/09 14:44:51;;;;;;;2.92;2.63;;;;;;;;;;5019465;28;20235;-85
2023/07/09 14:47:19;;;;;;;6.32;3.10;;;;;;;;;;5023092;28;20569;-86
2023/07/09 14:49:47;;;;;;;5.55;2.95;;;;;;;;;;5023024;28;20229;-86